AirNav   Air Wisconsin pilot careers
 
 485 users online  

9S1 Four Winds Airport
Celina, Texas, USA


FAA INFORMATION EFFECTIVE 07 DECEMBER 2017

Location

FAA Identifier: 9S1
Lat/Long: 33-22-05.7950N / 096-45-16.9000W
33-22.096583N / 096-45.281667W
33.3682764 / -96.7546944
(estimated)
Elevation: 790 ft. / 241 m (estimated)
From city: 3 miles NE of CELINA, TX
Time zone: UTC -6 (UTC -5 during Daylight Saving Time)
Zip code: 75009

Airport Operations

Airport use: Open to the public
Activation date: 05/2007
Control tower: no
ARTCC: FORT WORTH CENTER
FSS: FORT WORTH FLIGHT SERVICE STATION
NOTAMs facility: FTW (NOTAM-D service available)
Attendance: DAWN-DUSK
Wind indicator: yes
Segmented circle: no

Airport Communications

CTAF: 122.9
WX ASOS at TKI (14 nm SE): 119.925 (972-548-8525)

Nearby radio navigation aids

VOR radial/distance  VOR name  Freq  Var
BYPr243/28.0BONHAM VORTAC114.6006E
CVEr009/29.6COWBOY VOR/DME116.2006E
TTTr020/33.2MAVERICK VOR/DME113.1006E
FUZr031/35.8RANGER VORTAC115.7006E
URHr203/39.0TEXOMA VOR/DME114.3005E

 
NDB name  Hdg/Dist  Freq  Var  ID
MELISA305/10.542103EVLY ...- .-.. -.--
DENISON183/27.834106EDNI -.. -. ..
CADDO MILLS302/32.231606EMII -- .. ..
MESQUITE338/35.424803EPQF .--. --.- ..-.

Airport Services

Runway Information

Runway 18/36

Dimensions: 2662 x 100 ft. / 811 x 30 m
Surface: turf, in good condition
RUNWAY 18  RUNWAY 36
Latitude: 33-22.316000N33-21.877167N
Longitude: 096-45.278500W096-45.284833W
Elevation: 780.0 ft.787.0 ft.
Traffic pattern: rightleft
Obstructions: 21 ft. trees, 72 ft. from runway, 78 ft. left of centerline, 3:1 slope to clear13 ft. sign, 9 ft. from runway, 123 ft. left of centerline
19 FT ROAD 66 FT FM THLD CROSSING CNTRLN. 5 FT FENCE 39 FT FM THLD CROSSING CNTRLN. 45 FT BUILDING 588 FT FM THLD, 51 FT LEFT OF CNTRLN.

Airport Ownership and Management from official FAA records

Ownership: Privately-owned
Owner: FOUR WINDS ENTERPRISES
10000 CR 134
CELINA, TX 75009
Phone 972-382-8664
Manager: STEWART & AVERILLE DAWSON
10000 CR 134
CELINA, TX 75009
Phone 214-803-7533

Airport Operational Statistics

Aircraft based on the field: 4
Single engine airplanes: 4
    
Aircraft operations: avg 33/month *
50% transient general aviation
50% local general aviation
* for 12-month period ending 31 December 2015

Additional Remarks

ALL TFC REMAIN WEST OF THE ARPT.
RY 17 - 15 FT DROP NORTH OF THLD.
FOR CD CTC REGIONAL APCH AT 972-615-2799.

Instrument Procedures

There are no published instrument procedures at 9S1.

Some nearby airports with instrument procedures:

KTKI - McKinney National Airport (14 nm SE)
KSWI - Sherman Municipal Airport (18 nm NE)
KGYI - North Texas Regional Airport/Perrin Field (21 nm N)
KADS - Addison Airport (24 nm S)
KDTO - Denton Enterprise Airport (24 nm SW)
 
Loc | Ops | Rwys | IFR | FBO | Links
Com | Nav | Svcs | Stats | Notes

Lake Texoma Jet Center
AirBoss

 
Area around 9S1 (Four Winds Airport)
 
Road maps at: MapQuest Bing Google
 
Aerial photo
No photo
 
Sectional chart

 
Airport distance calculator
Flying to Four Winds Airport? Find the distance to fly.

From to 9S1

Sunrise and sunset
Times for 18-Dec-2017
 Local
(UTC-6)
 Zulu
(UTC)
Morning civil twilight06:5912:59
Sunrise07:2613:26
Sunset17:2123:21
Evening civil twilight17:4823:48

Current date and time
Zulu (UTC)  18-Dec-2017 06:33:36
Local (UTC-6)  18-Dec-2017 00:33:36
 
METAR
KTKI 
14nm SE 
180553Z AUTO 00000KT 9SM OVC007 09/08 A3014 RMK AO2 SLP215 T00890083 10094 20089 401000061 52007
KGYI 
21nm N 
180615Z AUTO 20003KT 4SM BR OVC004 08/07 A3015 RMK AO2 T00780071
KADS 
24nm S 
180615Z AUTO 16004KT 7SM OVC008 09/08 A3015 RMK AO2 T00900079
KDTO 
25nm SW 
180602Z AUTO 20004KT 4SM BR OVC004 08/08 A3013 RMK AO2 T00830083
KGLE 
28nm NW 
180615Z AUTO 00000KT 3SM BR OVC005 08/07 A3015 RMK AO2 T00760067
TAF
KDFW 
31nm SW 
180529Z 1806/1912 14003KT 5SM BR OVC007 FM180900 13004KT 2SM BR OVC004 FM181500 13004KT 5SM BR OVC008 FM182000 14005KT P6SM OVC011 FM190300 15006KT 5SM BR OVC008 FM190600 16007KT 2SM BR OVC004
KDAL 
31nm S 
180529Z 1806/1906 14003KT 5SM BR OVC008 FM180900 13004KT 2SM BR OVC004 FM181500 13004KT 5SM BR OVC008 FM182000 14005KT P6SM OVC011 FM190300 15006KT 5SM BR OVC008
KAFW 
37nm SW 
180529Z 1806/1906 14004KT 5SM BR OVC004 FM180700 13004KT 2SM BR OVC004 FM181700 12004KT 5SM BR OVC008 FM182000 14005KT P6SM OVC011 FM190200 15006KT 5SM BR OVC008
NOTAMs
Click for the latest NOTAMs
NOTAMs are issued by the DoD/FAA and will open in a separate window not controlled by AirNav.

 

 
 

Would you like to see your business listed on this page?

 If your business provides an interesting product or service to pilots, flight crews, aircraft, or users of the Four Winds Airport, you should consider listing it here.  To start the listing process, click on the button below
 
Add a business
 

Other Pages about Four Winds Airport

Update a link
 
Copyright © AirNav, LLC. All rights reserved. Privacy Policy  Contact